Time;durP1;ratioP1;P1;durP2;ratioP2;P2;SDS_P1;SDS_P2;PMS_P1;PMS_P2;Temp;Humidity;BMP_temperature;BMP_pressure;BME280_temperature;BME280_humidity;BME280_pressure;Samples;Min_cycle;Max_cycle;Signal;HPM_P1;HPM_P2
2023/03/04 00:01:30;;;;;;;17.10;6.50;;;7.90;99.90;;;;;;5099477;28;20207;-78
2023/03/04 00:03:56;;;;;;;9.80;5.40;;;7.80;99.90;;;;;;5097493;28;20614;-78
2023/03/04 00:06:22;;;;;;;13.43;5.87;;;7.70;99.90;;;;;;5097100;28;20193;-79
2023/03/04 00:08:49;;;;;;;9.83;5.13;;;7.60;99.90;;;;;;5096297;28;20165;-75
2023/03/04 00:11:14;;;;;;;12.53;5.70;;;7.60;99.90;;;;;;5096208;28;20169;-76
2023/03/04 00:13:40;;;;;;;12.83;5.60;;;7.50;99.90;;;;;;5095888;28;20166;-75
2023/03/04 00:16:06;;;;;;;14.63;5.87;;;7.50;99.90;;;;;;5102183;27;20168;-76
2023/03/04 00:18:32;;;;;;;15.33;5.60;;;7.50;99.90;;;;;;5134993;27;20523;-75
2023/03/04 00:20:57;;;;;;;16.00;6.30;;;7.40;99.90;;;;;;5134940;27;20674;-76
2023/03/04 00:23:23;;;;;;;17.60;6.90;;;7.50;99.90;;;;;;5116206;27;20162;-75
2023/03/04 00:25:48;;;;;;;22.40;7.57;;;7.50;99.90;;;;;;5116359;27;20681;-73
2023/03/04 00:28:14;;;;;;;15.77;8.00;;;7.60;99.90;;;;;;5118974;27;20495;-75
2023/03/04 00:30:40;;;;;;;16.77;7.53;;;7.50;99.90;;;;;;5113891;28;20158;-74
2023/03/04 00:33:05;;;;;;;16.97;8.50;;;7.40;99.90;;;;;;5095754;28;20166;-75
2023/03/04 00:35:31;;;;;;;19.83;7.77;;;7.50;99.90;;;;;;5105672;27;20460;-75
2023/03/04 00:37:57;;;;;;;17.20;7.60;;;7.40;99.90;;;;;;5116211;27;20176;-75
2023/03/04 00:40:22;;;;;;;17.23;7.63;;;7.40;99.90;;;;;;5134405;27;20190;-76
2023/03/04 00:42:48;;;;;;;17.33;8.17;;;7.40;99.90;;;;;;5134070;27;20214;-75
2023/03/04 00:45:13;;;;;;;13.80;7.97;;;7.40;99.90;;;;;;5115973;27;20563;-75
2023/03/04 00:47:39;;;;;;;18.13;8.17;;;7.50;99.90;;;;;;5116283;27;20164;-75
2023/03/04 00:50:05;;;;;;;17.73;7.77;;;7.50;99.90;;;;;;5115750;27;20161;-76
2023/03/04 00:52:32;;;;;;;20.70;7.70;;;7.50;99.90;;;;;;5115833;27;20239;-75
2023/03/04 00:54:58;;;;;;;21.87;8.97;;;7.40;99.90;;;;;;5134493;27;20160;-76
2023/03/04 00:57:24;;;;;;;14.03;7.63;;;7.50;99.90;;;;;;5099744;28;20180;-75
2023/03/04 00:59:51;;;;;;;16.43;8.37;;;7.40;99.90;;;;;;5095091;28;20198;-75
2023/03/04 01:02:16;;;;;;;16.17;7.10;;;7.30;99.90;;;;;;5113738;28;20569;-75
2023/03/04 01:04:43;;;;;;;19.20;7.83;;;7.30;99.90;;;;;;5095018;28;20184;-74
2023/03/04 01:07:09;;;;;;;16.00;8.07;;;7.40;99.90;;;;;;5113359;28;20515;-75
2023/03/04 01:09:34;;;;;;;18.60;7.90;;;7.50;99.90;;;;;;5113280;28;20170;-75
2023/03/04 01:12:00;;;;;;;15.40;7.40;;;7.50;99.90;;;;;;5094335;28;20256;-75
2023/03/04 01:14:26;;;;;;;19.70;7.00;;;7.50;99.90;;;;;;5094728;28;20197;-73
2023/03/04 01:16:51;;;;;;;15.80;7.93;;;7.60;99.90;;;;;;5095034;28;20638;-76
2023/03/04 01:19:17;;;;;;;12.90;6.90;;;7.70;99.90;;;;;;5113264;28;20190;-75
2023/03/04 01:21:43;;;;;;;18.60;7.23;;;7.60;99.90;;;;;;5113074;28;20194;-76
2023/03/04 01:24:09;;;;;;;19.10;7.60;;;7.70;99.90;;;;;;5113248;28;20246;-75
2023/03/04 01:26:36;;;;;;;21.17;8.23;;;7.80;99.90;;;;;;5094740;28;20219;-75
2023/03/04 01:29:02;;;;;;;25.47;7.40;;;7.70;99.90;;;;;;5094926;28;20170;-75
2023/03/04 01:31:27;;;;;;;18.67;8.10;;;7.70;99.90;;;;;;5094747;28;20173;-75
2023/03/04 01:33:53;;;;;;;18.53;7.23;;;7.70;99.90;;;;;;5094986;28;20218;-76
2023/03/04 01:36:19;;;;;;;19.03;7.67;;;7.90;99.90;;;;;;5095221;28;20246;-75
2023/03/04 01:38:44;;;;;;;16.23;7.33;;;7.80;99.90;;;;;;5113299;28;20246;-76
2023/03/04 01:41:13;;;;;;;16.90;7.50;;;7.90;99.90;;;;;;5112966;28;20173;-76
2023/03/04 01:43:39;;;;;;;23.07;7.03;;;7.80;99.90;;;;;;5094782;28;20531;-75
2023/03/04 01:46:05;;;;;;;15.83;7.23;;;7.80;99.90;;;;;;5113635;28;20157;-74
2023/03/04 01:48:35;;;;;;;19.13;7.07;;;7.60;99.90;;;;;;5112798;28;20222;-75
2023/03/04 01:51:05;;;;;;;21.57;8.60;;;7.70;99.90;;;;;;5112783;28;20154;-74
2023/03/04 01:53:32;;;;;;;14.20;6.87;;;7.80;99.90;;;;;;5094726;28;20150;-74
2023/03/04 01:56:10;;;;;;;17.07;7.33;;;7.70;99.90;;;;;;5112657;28;20229;-75
2023/03/04 01:58:36;;;;;;;14.43;8.13;;;7.60;99.90;;;;;;5112575;28;20194;-74
2023/03/04 02:01:01;;;;;;;16.63;6.37;;;7.70;99.90;;;;;;5095229;28;20289;-74
2023/03/04 02:03:27;;;;;;;19.80;6.80;;;7.70;99.90;;;;;;5113630;28;20173;-74
2023/03/04 02:05:54;;;;;;;18.50;6.87;;;7.70;99.90;;;;;;5094294;28;20162;-75
2023/03/04 02:08:23;;;;;;;20.63;6.67;;;7.70;99.90;;;;;;5094311;28;20158;-76
2023/03/04 02:10:50;;;;;;;18.23;6.70;;;7.70;99.90;;;;;;5112441;28;20170;-75
2023/03/04 02:13:15;;;;;;;15.67;7.00;;;7.70;99.90;;;;;;5094664;28;20174;-75
2023/03/04 02:15:43;;;;;;;13.23;6.83;;;7.80;99.90;;;;;;5112488;28;20162;-74
2023/03/04 02:18:21;;;;;;;14.90;6.43;;;7.80;99.90;;;;;;5094242;28;20168;-74
2023/03/04 02:21:01;;;;;;;24.87;7.53;;;7.70;99.90;;;;;;5102441;28;20668;-75
2023/03/04 02:23:42;;;;;;;20.30;6.87;;;7.70;99.90;;;;;;5114728;28;20165;-75
2023/03/04 02:26:08;;;;;;;17.00;6.33;;;7.80;99.90;;;;;;5118142;27;20635;-75
2023/03/04 02:28:34;;;;;;;23.03;7.43;;;7.90;99.90;;;;;;5118280;27;20238;-75
2023/03/04 02:31:00;;;;;;;16.43;6.30;;;7.90;99.90;;;;;;5136856;27;20190;-74
2023/03/04 02:33:26;;;;;;;22.17;6.30;;;7.80;99.90;;;;;;5118328;27;20205;-75
2023/03/04 02:35:51;;;;;;;14.87;6.33;;;7.90;99.90;;;;;;5118682;27;20161;-75
2023/03/04 02:38:17;;;;;;;16.80;6.40;;;7.80;99.90;;;;;;5136506;27;20146;-75
2023/03/04 02:40:47;;;;;;;18.23;6.20;;;7.70;99.90;;;;;;5103841;28;20580;-75
2023/03/04 02:43:13;;;;;;;16.13;6.00;;;7.80;99.90;;;;;;5098177;28;20177;-74
2023/03/04 02:45:45;;;;;;;13.80;6.03;;;7.80;99.90;;;;;;5116609;28;20162;-74
2023/03/04 02:48:12;;;;;;;15.73;6.13;;;7.70;99.90;;;;;;5098289;28;20158;-74
2023/03/04 02:50:47;;;;;;;19.03;6.80;;;7.70;99.90;;;;;;5116564;28;20174;-74
2023/03/04 02:53:14;;;;;;;20.17;6.30;;;7.70;99.90;;;;;;5097878;28;20142;-73
2023/03/04 02:55:41;;;;;;;23.83;6.83;;;7.80;99.90;;;;;;5097951;28;20215;-75
2023/03/04 02:58:07;;;;;;;16.17;6.00;;;7.80;99.90;;;;;;5098192;28;20173;-75
2023/03/04 03:00:33;;;;;;;22.90;6.67;;;7.80;99.90;;;;;;5115713;28;20193;-74
2023/03/04 03:02:59;;;;;;;20.70;6.53;;;7.80;99.90;;;;;;5098545;27;20176;-75
2023/03/04 03:05:28;;;;;;;18.97;7.07;;;7.70;99.90;;;;;;5098318;28;20154;-75
2023/03/04 03:07:54;;;;;;;19.57;6.60;;;7.80;99.90;;;;;;5098386;28;20589;-74
2023/03/04 03:10:20;;;;;;;16.73;6.33;;;7.80;99.90;;;;;;5098651;28;20173;-74
2023/03/04 03:12:45;;;;;;;18.80;6.10;;;7.70;99.90;;;;;;5096815;28;20184;-74
2023/03/04 03:15:11;;;;;;;20.30;5.73;;;7.80;99.90;;;;;;5097158;28;20157;-74
2023/03/04 03:17:38;;;;;;;13.00;6.50;;;7.70;99.90;;;;;;5115340;28;20154;-74
2023/03/04 03:20:05;;;;;;;18.60;5.43;;;7.70;99.90;;;;;;5096839;28;20223;-74
2023/03/04 03:22:31;;;;;;;16.43;6.60;;;7.80;99.90;;;;;;5096465;28;20250;-74
2023/03/04 03:24:56;;;;;;;19.07;6.53;;;7.70;99.90;;;;;;5115087;28;20197;-75
2023/03/04 03:27:22;;;;;;;13.63;6.10;;;7.70;99.90;;;;;;5126758;27;20506;-74
2023/03/04 03:29:47;;;;;;;17.67;7.37;;;7.70;99.90;;;;;;5117226;27;20169;-74
2023/03/04 03:32:13;;;;;;;14.73;6.87;;;7.70;99.90;;;;;;5127592;27;20178;-75
2023/03/04 03:34:39;;;;;;;13.90;5.93;;;7.70;99.90;;;;;;5096160;28;20164;-75
2023/03/04 03:37:04;;;;;;;20.63;6.10;;;7.70;99.90;;;;;;5096967;28;20690;-74
2023/03/04 03:39:30;;;;;;;13.40;5.43;;;7.70;99.90;;;;;;5096507;28;20185;-74
2023/03/04 03:41:55;;;;;;;16.07;6.80;;;7.70;99.90;;;;;;5096681;28;20250;-74
2023/03/04 03:44:21;;;;;;;13.83;6.63;;;7.60;99.90;;;;;;5096547;28;20503;-76
2023/03/04 03:46:47;;;;;;;18.53;6.47;;;7.50;99.90;;;;;;5096885;28;20177;-77
2023/03/04 03:49:13;;;;;;;21.33;7.67;;;7.70;99.90;;;;;;5096522;28;20268;-77
2023/03/04 03:51:39;;;;;;;21.17;6.50;;;7.50;99.90;;;;;;5135083;27;20250;-77
2023/03/04 03:54:04;;;;;;;22.97;6.63;;;7.50;99.90;;;;;;5116847;27;20157;-78
2023/03/04 03:56:30;;;;;;;19.57;6.67;;;7.60;99.90;;;;;;5136311;27;20734;-77
2023/03/04 03:58:55;;;;;;;23.07;7.40;;;7.50;99.90;;;;;;5135444;27;20223;-77
2023/03/04 04:01:21;;;;;;;17.00;6.43;;;7.70;99.90;;;;;;5135288;27;20505;-77
2023/03/04 04:03:46;;;;;;;21.17;7.00;;;7.60;99.90;;;;;;5116568;27;20198;-77
2023/03/04 04:06:13;;;;;;;17.00;7.77;;;7.70;99.90;;;;;;5109565;28;20174;-77
2023/03/04 04:08:39;;;;;;;15.97;7.07;;;7.80;99.90;;;;;;5095922;28;20566;-77
2023/03/04 04:11:04;;;;;;;18.63;8.27;;;7.80;99.90;;;;;;5114193;27;20234;-79
2023/03/04 04:13:30;;;;;;;16.77;8.10;;;7.70;99.90;;;;;;5116626;27;20264;-77
2023/03/04 04:15:56;;;;;;;14.57;7.10;;;7.70;99.90;;;;;;5116785;27;20527;-78
2023/03/04 04:18:24;;;;;;;16.53;7.70;;;7.50;99.90;;;;;;5134938;27;20150;-78
2023/03/04 04:20:51;;;;;;;18.60;8.27;;;7.50;99.90;;;;;;5116196;27;20710;-78
2023/03/04 04:23:17;;;;;;;18.77;7.60;;;7.50;99.90;;;;;;5116445;27;20161;-77
2023/03/04 04:25:42;;;;;;;17.53;7.77;;;7.60;99.90;;;;;;5119984;27;20168;-79
2023/03/04 04:28:08;;;;;;;17.87;7.77;;;7.60;99.90;;;;;;5095850;28;20515;-77
2023/03/04 04:30:34;;;;;;;18.97;7.80;;;7.50;99.90;;;;;;5114465;28;20557;-78
2023/03/04 04:33:00;;;;;;;18.93;7.77;;;7.60;99.90;;;;;;5095981;28;20209;-77
2023/03/04 04:35:27;;;;;;;22.30;8.73;;;7.50;99.90;;;;;;5113602;28;20150;-78
2023/03/04 04:37:53;;;;;;;21.87;7.90;;;7.60;99.90;;;;;;5114114;28;20642;-77
2023/03/04 04:40:19;;;;;;;19.23;7.90;;;7.60;99.90;;;;;;5096734;28;20231;-77
2023/03/04 04:42:44;;;;;;;20.17;8.13;;;7.60;99.90;;;;;;5114364;28;20525;-77
2023/03/04 04:45:10;;;;;;;19.10;7.80;;;7.50;99.90;;;;;;5114086;28;20154;-77
2023/03/04 04:47:36;;;;;;;24.37;8.60;;;7.60;99.90;;;;;;5113123;28;20513;-77
2023/03/04 04:50:02;;;;;;;19.57;8.83;;;7.60;99.90;;;;;;5095741;28;20207;-77
2023/03/04 04:52:28;;;;;;;20.93;8.57;;;7.50;99.90;;;;;;5113799;28;20158;-77
2023/03/04 04:54:53;;;;;;;16.77;8.00;;;7.60;99.90;;;;;;5113450;28;20219;-79
2023/03/04 04:57:19;;;;;;;16.13;8.47;;;7.50;99.90;;;;;;5095494;28;20201;-78
2023/03/04 04:59:44;;;;;;;20.30;7.70;;;7.50;99.90;;;;;;5113361;28;20204;-78
2023/03/04 05:02:11;;;;;;;23.70;8.57;;;7.60;99.90;;;;;;5114924;27;20630;-77
2023/03/04 05:04:36;;;;;;;18.10;7.60;;;7.60;99.90;;;;;;5115280;27;20226;-78
2023/03/04 05:07:02;;;;;;;17.30;7.50;;;7.50;99.90;;;;;;5115577;27;20205;-77
2023/03/04 05:09:28;;;;;;;16.80;7.90;;;7.50;99.90;;;;;;5115453;27;20256;-77
2023/03/04 05:11:53;;;;;;;19.40;8.27;;;7.50;99.90;;;;;;5115603;27;20180;-77
2023/03/04 05:14:19;;;;;;;20.03;7.67;;;7.50;99.90;;;;;;5133839;27;20205;-78
2023/03/04 05:16:45;;;;;;;15.83;6.70;;;7.50;99.90;;;;;;5133610;27;20176;-77
2023/03/04 05:19:10;;;;;;;20.53;7.57;;;7.40;99.90;;;;;;5100563;28;20224;-77
2023/03/04 05:21:36;;;;;;;22.17;8.47;;;7.30;99.90;;;;;;5094885;28;20229;-77
2023/03/04 05:24:02;;;;;;;15.90;7.37;;;7.40;99.90;;;;;;5113340;28;20166;-77
2023/03/04 05:26:30;;;;;;;18.00;7.40;;;7.60;99.90;;;;;;5095006;28;20161;-78
2023/03/04 05:28:55;;;;;;;12.27;7.03;;;7.50;99.90;;;;;;5095165;28;20439;-78
2023/03/04 05:31:21;;;;;;;20.97;6.77;;;7.50;99.90;;;;;;5094736;28;20259;-78
2023/03/04 05:33:48;;;;;;;21.17;7.27;;;7.50;99.90;;;;;;5095519;28;20652;-77
2023/03/04 05:36:13;;;;;;;18.10;7.13;;;7.60;99.90;;;;;;5094827;28;20164;-77
2023/03/04 05:38:39;;;;;;;16.13;6.77;;;7.50;99.90;;;;;;5113291;28;20684;-77
2023/03/04 05:41:06;;;;;;;16.17;7.13;;;7.50;99.90;;;;;;5116222;28;20521;-77
2023/03/04 05:43:34;;;;;;;17.83;7.17;;;7.40;99.90;;;;;;5115535;28;20538;-77
2023/03/04 05:46:01;;;;;;;19.67;6.70;;;7.30;99.90;;;;;;5133450;28;20153;-78
2023/03/04 05:48:27;;;;;;;14.97;6.53;;;7.40;99.90;;;;;;5133434;28;20157;-78
2023/03/04 05:50:57;;;;;;;21.43;5.80;;;7.40;99.90;;;;;;5133412;28;20173;-77
2023/03/04 05:53:23;;;;;;;18.43;5.37;;;7.40;99.90;;;;;;5133250;28;20190;-77
2023/03/04 05:55:50;;;;;;;22.77;5.47;;;7.40;99.90;;;;;;5132953;28;20677;-77
2023/03/04 05:58:17;;;;;;;12.23;4.70;;;7.40;99.90;;;;;;5116099;27;20217;-78
2023/03/04 06:00:43;;;;;;;16.77;5.27;;;7.40;99.90;;;;;;5137381;27;20173;-77
2023/03/04 06:03:20;;;;;;;13.63;4.07;;;7.40;99.90;;;;;;5118697;27;20509;-77
2023/03/04 06:05:46;;;;;;;12.67;4.50;;;7.50;99.90;;;;;;5121127;27;20244;-77
2023/03/04 06:08:12;;;;;;;17.80;4.63;;;7.40;99.90;;;;;;5099318;28;20195;-79
2023/03/04 06:10:39;;;;;;;9.63;3.27;;;7.40;99.90;;;;;;5116652;28;20181;-78
2023/03/04 06:13:05;;;;;;;11.20;3.40;;;7.30;99.90;;;;;;5098444;28;20199;-78
2023/03/04 06:15:31;;;;;;;10.53;3.77;;;7.40;99.90;;;;;;5117724;27;20204;-78
2023/03/04 06:17:56;;;;;;;10.37;3.40;;;7.50;99.90;;;;;;5132728;27;20166;-77
2023/03/04 06:20:22;;;;;;;12.83;3.83;;;7.50;99.90;;;;;;5118789;27;20275;-77
2023/03/04 06:22:49;;;;;;;12.67;3.30;;;7.50;99.90;;;;;;5118857;27;20156;-78
2023/03/04 06:25:14;;;;;;;8.30;2.93;;;7.50;99.90;;;;;;5137255;27;20156;-77
2023/03/04 06:27:40;;;;;;;8.03;3.10;;;7.40;99.90;;;;;;5119105;27;20625;-77
2023/03/04 06:30:06;;;;;;;10.27;2.87;;;7.30;99.90;;;;;;5118965;27;20173;-77
2023/03/04 06:32:33;;;;;;;11.87;3.07;;;7.30;99.90;;;;;;5118502;27;20172;-78
2023/03/04 06:34:59;;;;;;;10.70;3.03;;;7.30;99.90;;;;;;5136701;27;20164;-78
2023/03/04 06:37:24;;;;;;;8.37;3.03;;;7.10;99.90;;;;;;5118467;27;20169;-78
2023/03/04 06:39:50;;;;;;;10.07;3.13;;;7.20;99.90;;;;;;5118531;27;20704;-77
2023/03/04 06:42:16;;;;;;;14.57;3.20;;;7.20;99.90;;;;;;5118159;27;20170;-77
2023/03/04 06:44:41;;;;;;;14.27;3.60;;;7.30;99.90;;;;;;5116361;28;20180;-77
2023/03/04 06:47:07;;;;;;;11.67;2.97;;;7.40;99.90;;;;;;5116099;28;20150;-81
2023/03/04 06:49:33;;;;;;;13.27;3.07;;;7.40;99.90;;;;;;5097896;28;20173;-79
2023/03/04 06:51:59;;;;;;;15.90;3.77;;;7.40;99.90;;;;;;5116115;28;20249;-79
2023/03/04 06:54:25;;;;;;;13.60;3.37;;;7.50;99.90;;;;;;5115913;28;20154;-79
2023/03/04 06:56:51;;;;;;;12.10;3.30;;;7.40;99.90;;;;;;5120551;27;20227;-79
2023/03/04 06:59:16;;;;;;;14.33;3.00;;;7.40;99.90;;;;;;5097424;28;20203;-79
2023/03/04 07:01:42;;;;;;;12.87;3.13;;;7.40;99.90;;;;;;5116463;28;20143;-79
2023/03/04 07:04:08;;;;;;;11.60;3.30;;;7.40;99.90;;;;;;5129203;27;20213;-78
2023/03/04 07:06:33;;;;;;;9.60;3.47;;;7.50;99.90;;;;;;5136303;27;20149;-79
2023/03/04 07:08:59;;;;;;;11.37;3.33;;;7.60;99.90;;;;;;5136220;27;20157;-78
2023/03/04 07:11:25;;;;;;;11.20;3.10;;;7.50;99.90;;;;;;5117274;27;20244;-79
2023/03/04 07:13:51;;;;;;;15.83;3.47;;;7.50;99.90;;;;;;5117700;27;20228;-79
2023/03/04 07:16:20;;;;;;;13.47;3.53;;;7.50;99.90;;;;;;5117814;27;20172;-79
2023/03/04 07:18:46;;;;;;;15.93;3.83;;;7.60;99.90;;;;;;5136281;27;20176;-79
2023/03/04 07:21:13;;;;;;;9.47;3.40;;;7.70;99.90;;;;;;5136485;27;20165;-78
2023/03/04 07:23:39;;;;;;;12.27;3.43;;;7.70;99.90;;;;;;5135932;27;20546;-77
2023/03/04 07:26:05;;;;;;;12.40;3.50;;;7.70;99.90;;;;;;5114509;27;20204;-77
2023/03/04 07:28:31;;;;;;;10.07;3.17;;;7.70;99.90;;;;;;5114958;28;20166;-76
2023/03/04 07:30:56;;;;;;;11.97;3.70;;;7.60;99.90;;;;;;5115772;28;20501;-76
2023/03/04 07:33:22;;;;;;;14.67;4.40;;;7.70;99.90;;;;;;5115164;28;20174;-76
2023/03/04 07:35:48;;;;;;;20.00;4.07;;;7.70;99.90;;;;;;5104365;27;20161;-77
2023/03/04 07:38:14;;;;;;;18.47;5.97;;;7.70;99.90;;;;;;5135371;27;20574;-75
2023/03/04 07:40:40;;;;;;;17.23;6.87;;;7.80;99.90;;;;;;5135261;27;20245;-76
2023/03/04 07:43:05;;;;;;;17.73;6.13;;;7.90;99.90;;;;;;5135429;27;20682;-76
2023/03/04 07:45:31;;;;;;;16.20;6.03;;;7.80;99.90;;;;;;5117411;27;20170;-76
2023/03/04 07:47:58;;;;;;;12.07;4.87;;;7.70;99.90;;;;;;5115190;27;20170;-77
2023/03/04 07:50:24;;;;;;;15.97;5.77;;;7.70;99.90;;;;;;5123577;27;20162;-77
2023/03/04 07:52:50;;;;;;;10.50;4.47;;;7.70;99.90;;;;;;5135180;27;20609;-76
2023/03/04 07:55:16;;;;;;;10.20;4.67;;;7.60;99.90;;;;;;5135805;27;20188;-78
2023/03/04 07:57:46;;;;;;;12.67;3.70;;;7.60;99.90;;;;;;5135670;27;20248;-77
2023/03/04 08:00:15;;;;;;;12.13;3.93;;;7.80;99.90;;;;;;5135371;27;20571;-77
2023/03/04 08:02:41;;;;;;;15.67;3.30;;;7.70;99.90;;;;;;5134447;27;20168;-77
2023/03/04 08:05:07;;;;;;;10.47;3.60;;;7.60;99.90;;;;;;5128650;27;20177;-78
2023/03/04 08:07:33;;;;;;;8.87;3.03;;;7.60;99.90;;;;;;5135318;27;20153;-76
2023/03/04 08:09:59;;;;;;;11.87;2.80;;;7.80;99.90;;;;;;5116592;27;20412;-77
2023/03/04 08:12:26;;;;;;;11.33;2.70;;;7.90;99.90;;;;;;5132407;27;20157;-78
2023/03/04 08:15:05;;;;;;;17.67;3.37;;;7.80;99.90;;;;;;5115224;28;20169;-77
2023/03/04 08:17:40;;;;;;;8.53;2.00;;;7.90;99.90;;;;;;5115449;28;20153;-76
2023/03/04 08:20:10;;;;;;;7.83;2.17;;;7.90;99.90;;;;;;5115259;28;20265;-78
2023/03/04 08:22:41;;;;;;;6.07;1.70;;;7.90;99.90;;;;;;5115101;28;20146;-77
2023/03/04 08:25:07;;;;;;;6.37;2.03;;;7.80;99.90;;;;;;5114640;28;20158;-75
2023/03/04 08:27:47;;;;;;;9.67;2.60;;;7.80;99.90;;;;;;5096672;28;20526;-77
2023/03/04 08:30:15;;;;;;;8.53;2.20;;;7.70;99.90;;;;;;5115016;28;20154;-77
2023/03/04 08:32:57;;;;;;;7.83;2.30;;;7.60;99.90;;;;;;5114497;28;20257;-76
2023/03/04 08:35:26;;;;;;;6.33;1.93;;;7.70;99.90;;;;;;5114190;28;20645;-78
2023/03/04 08:37:55;;;;;;;7.10;2.30;;;7.80;99.90;;;;;;5114962;28;20545;-78
2023/03/04 08:40:33;;;;;;;11.43;2.50;;;7.80;99.90;;;;;;5114710;28;20178;-78
2023/03/04 08:43:24;;;;;;;8.83;2.43;;;7.80;99.90;;;;;;5095879;28;20202;-77
2023/03/04 08:46:19;;;;;;;9.53;3.20;;;7.80;99.90;;;;;;5114840;28;20153;-78
2023/03/04 08:48:48;;;;;;;5.77;3.17;;;8.00;99.90;;;;;;5096126;28;20227;-77
2023/03/04 08:51:28;;;;;;;10.00;3.20;;;8.10;99.90;;;;;;5114641;28;20555;-77
2023/03/04 08:53:59;;;;;;;5.80;3.20;;;7.90;99.90;;;;;;5114661;28;20181;-78
2023/03/04 08:56:28;;;;;;;13.90;4.27;;;8.00;99.90;;;;;;5095700;28;20308;-76
2023/03/04 08:58:59;;;;;;;8.27;3.80;;;8.10;99.90;;;;;;5114168;28;20521;-77
2023/03/04 09:01:36;;;;;;;11.10;4.50;;;8.10;99.90;;;;;;5095663;28;20166;-78
2023/03/04 09:04:12;;;;;;;11.43;4.50;;;8.20;99.90;;;;;;5114231;28;20183;-78
2023/03/04 09:06:41;;;;;;;10.10;4.70;;;8.20;99.90;;;;;;5114164;28;20162;-76
2023/03/04 09:09:19;;;;;;;8.50;4.10;;;8.20;99.90;;;;;;5114287;28;20184;-77
2023/03/04 09:11:45;;;;;;;13.73;4.90;;;8.10;99.90;;;;;;5111110;27;20214;-75
2023/03/04 09:14:11;;;;;;;14.03;4.67;;;8.20;99.90;;;;;;5134387;27;20178;-74
2023/03/04 09:16:37;;;;;;;12.27;4.70;;;8.20;99.90;;;;;;5107085;28;20177;-74
2023/03/04 09:19:02;;;;;;;12.67;4.80;;;8.30;99.90;;;;;;5110838;28;20193;-74
2023/03/04 09:21:30;;;;;;;14.67;4.83;;;8.20;99.90;;;;;;5126659;27;20165;-74
2023/03/04 09:23:56;;;;;;;12.43;4.57;;;8.30;99.90;;;;;;5115851;28;20575;-74
2023/03/04 09:26:25;;;;;;;12.53;4.33;;;8.20;99.90;;;;;;5112720;27;20180;-74
2023/03/04 09:28:59;;;;;;;11.50;4.87;;;8.30;99.90;;;;;;5131421;27;20181;-73
2023/03/04 09:31:26;;;;;;;10.33;4.63;;;8.30;99.90;;;;;;5134031;28;20165;-75
2023/03/04 09:33:55;;;;;;;9.63;4.33;;;8.40;99.90;;;;;;5095760;28;20174;-74
2023/03/04 09:36:21;;;;;;;7.57;4.10;;;8.50;99.90;;;;;;5095242;28;20264;-74
2023/03/04 09:38:51;;;;;;;12.10;4.50;;;8.50;99.90;;;;;;5097619;27;20176;-75
2023/03/04 09:41:42;;;;;;;9.10;4.30;;;8.50;99.90;;;;;;5105641;28;20181;-74
2023/03/04 09:44:26;;;;;;;12.97;4.40;;;8.50;99.90;;;;;;5111899;28;20169;-76
2023/03/04 09:46:57;;;;;;;9.73;4.73;;;8.40;99.90;;;;;;5107082;28;20180;-74
2023/03/04 09:49:24;;;;;;;15.17;4.77;;;8.50;99.90;;;;;;5132285;27;20172;-74
2023/03/04 09:52:22;;;;;;;11.77;3.97;;;8.80;99.90;;;;;;5129091;28;20288;-74
2023/03/04 09:55:07;;;;;;;16.83;3.83;;;8.70;99.90;;;;;;5105704;28;20172;-73
2023/03/04 09:57:51;;;;;;;13.30;3.87;;;8.60;99.90;;;;;;5121859;27;20169;-73
2023/03/04 10:00:23;;;;;;;13.50;4.30;;;8.50;99.90;;;;;;5108242;28;20230;-74
2023/03/04 10:03:01;;;;;;;8.60;3.97;;;8.50;99.90;;;;;;5109767;28;20173;-74
2023/03/04 10:05:30;;;;;;;13.33;4.13;;;8.50;99.90;;;;;;5126120;28;20165;-74
2023/03/04 10:08:18;;;;;;;14.30;4.60;;;8.70;99.90;;;;;;5102099;28;20264;-74
2023/03/04 10:10:44;;;;;;;12.30;4.93;;;8.90;99.90;;;;;;5108262;28;20618;-74
2023/03/04 10:13:27;;;;;;;13.33;3.73;;;9.10;99.90;;;;;;5110517;28;20517;-74
2023/03/04 10:15:58;;;;;;;12.67;3.87;;;9.30;99.90;;;;;;5094717;28;20169;-75
2023/03/04 10:18:30;;;;;;;16.87;4.17;;;9.40;99.90;;;;;;5095131;28;20195;-74
2023/03/04 10:21:14;;;;;;;11.70;4.30;;;9.30;99.90;;;;;;5113121;28;20285;-73
2023/03/04 10:23:42;;;;;;;9.13;4.30;;;9.00;99.90;;;;;;5095101;28;20169;-75
2023/03/04 10:26:14;;;;;;;10.37;4.43;;;8.90;99.90;;;;;;5117152;27;20166;-74
2023/03/04 10:28:40;;;;;;;12.63;4.43;;;8.90;99.90;;;;;;5101763;28;20566;-75
2023/03/04 10:31:36;;;;;;;11.87;4.10;;;9.00;99.90;;;;;;5113488;28;20169;-74
2023/03/04 10:34:05;;;;;;;14.23;4.50;;;9.10;99.90;;;;;;5106637;28;20294;-74
2023/03/04 10:36:31;;;;;;;8.13;3.97;;;9.10;99.90;;;;;;5133781;28;20679;-75
2023/03/04 10:39:07;;;;;;;12.33;4.33;;;9.10;99.90;;;;;;5151380;27;20177;-74
2023/03/04 10:41:55;;;;;;;9.87;3.60;;;9.10;99.90;;;;;;5149601;27;20609;-74
2023/03/04 10:44:22;;;;;;;14.53;3.57;;;9.20;99.90;;;;;;5094938;28;20234;-74
2023/03/04 10:46:53;;;;;;;8.23;3.60;;;9.20;99.90;;;;;;5130003;27;20165;-74
2023/03/04 10:49:20;;;;;;;9.67;4.03;;;9.40;99.90;;;;;;5118835;27;20197;-73
2023/03/04 10:52:25;;;;;;;10.90;4.20;;;9.60;99.90;;;;;;5136864;27;20153;-75
2023/03/04 10:54:54;;;;;;;14.87;3.70;;;9.70;99.90;;;;;;5110743;28;20193;-74
2023/03/04 10:57:37;;;;;;;8.70;3.73;;;9.60;99.90;;;;;;5098199;28;20197;-75
2023/03/04 11:00:54;;;;;;;7.53;3.53;;;9.60;99.90;;;;;;5098195;28;20197;-79
2023/03/04 11:03:27;;;;;;;11.70;3.90;;;9.80;99.90;;;;;;5116697;28;20185;-79
2023/03/04 11:06:05;;;;;;;14.60;4.30;;;10.00;99.90;;;;;;5098156;28;20196;-78
2023/03/04 11:08:34;;;;;;;9.47;3.37;;;9.80;99.90;;;;;;5098518;28;20177;-79
2023/03/04 11:11:41;;;;;;;14.10;3.60;;;9.70;99.90;;;;;;5116564;28;20170;-78
2023/03/04 11:14:29;;;;;;;10.80;3.53;;;9.90;99.90;;;;;;5117222;28;20261;-80
2023/03/04 11:17:47;;;;;;;8.13;3.60;;;10.00;99.90;;;;;;5117757;28;20157;-79
2023/03/04 11:20:30;;;;;;;9.47;3.27;;;9.80;99.90;;;;;;5117053;28;20203;-79
2023/03/04 11:23:03;;;;;;;9.67;3.80;;;9.80;99.90;;;;;;5117336;28;20652;-78
2023/03/04 11:25:43;;;;;;;8.97;3.60;;;9.50;99.90;;;;;;5118042;28;20182;-79
2023/03/04 11:28:30;;;;;;;8.67;3.53;;;9.30;99.90;;;;;;5099061;28;20169;-79
2023/03/04 11:31:02;;;;;;;11.07;4.00;;;9.30;99.90;;;;;;5101127;28;20959;-81
2023/03/04 11:33:42;;;;;;;9.73;3.67;;;9.30;99.90;;;;;;5101979;27;20185;-80
2023/03/04 11:36:46;;;;;;;12.60;4.03;;;9.20;99.90;;;;;;5114094;28;20325;-79
2023/03/04 11:39:19;;;;;;;10.70;4.50;;;9.00;99.90;;;;;;5117684;28;20185;-79
2023/03/04 11:42:24;;;;;;;7.80;3.47;;;8.80;99.90;;;;;;5113076;28;20716;-79
2023/03/04 11:44:53;;;;;;;9.00;3.70;;;8.70;99.90;;;;;;5117857;28;20170;-81
2023/03/04 11:47:56;;;;;;;13.40;4.20;;;9.00;99.90;;;;;;5115498;28;20161;-80
2023/03/04 11:50:47;;;;;;;11.67;4.00;;;9.10;99.90;;;;;;5116288;28;20550;-79
2023/03/04 11:56:58;;;;;;;9.67;3.70;;;9.20;99.90;;;;;;5136573;27;20171;-79
2023/03/04 11:59:52;;;;;;;8.03;3.53;;;9.30;99.90;;;;;;5136869;27;20181;-80
2023/03/04 12:03:13;;;;;;;6.10;3.90;;;9.40;99.90;;;;;;5138175;27;20230;-78
2023/03/04 12:05:55;;;;;;;8.17;3.33;;;9.50;99.90;;;;;;5102979;27;20558;-79
2023/03/04 12:08:46;;;;;;;8.80;3.87;;;9.40;99.90;;;;;;5118617;27;20150;-79
2023/03/04 12:11:39;;;;;;;11.00;4.07;;;9.60;99.90;;;;;;5136643;27;20201;-80
2023/03/04 12:14:42;;;;;;;12.40;4.93;;;9.50;99.90;;;;;;5136192;27;20565;-79
2023/03/04 12:17:41;;;;;;;7.47;4.13;;;9.40;99.90;;;;;;5136439;27;20188;-79
2023/03/04 12:20:45;;;;;;;8.50;3.90;;;9.50;99.90;;;;;;5136121;27;20279;-79
2023/03/04 12:24:04;;;;;;;8.63;3.67;;;9.40;99.90;;;;;;5136519;27;20191;-79
2023/03/04 12:26:53;;;;;;;7.40;4.03;;;9.10;99.90;;;;;;5032631;28;20194;-80
2023/03/04 12:29:25;;;;;;;8.30;4.07;;;9.20;99.90;;;;;;5112193;27;20181;-80
2023/03/04 12:32:14;;;;;;;6.70;3.50;;;9.50;99.90;;;;;;5135912;27;20161;-81
2023/03/04 12:35:18;;;;;;;8.53;3.33;;;9.70;99.90;;;;;;5070509;27;20275;-79
2023/03/04 12:37:57;;;;;;;8.10;3.00;;;10.10;99.90;;;;;;5117120;27;20285;-80
2023/03/04 12:40:29;;;;;;;7.17;2.33;;;10.30;99.90;;;;;;5135085;27;20586;-80
2023/03/04 12:43:21;;;;;;;7.43;2.47;;;10.20;99.90;;;;;;5117772;27;20177;-80
2023/03/04 12:46:21;;;;;;;6.77;2.77;;;10.20;99.90;;;;;;5116479;27;20638;-79
2023/03/04 12:49:13;;;;;;;9.87;3.07;;;10.10;99.90;;;;;;5125586;27;20173;-79
2023/03/04 12:52:19;;;;;;;8.07;3.07;;;10.10;99.90;;;;;;5141364;27;20181;-78
2023/03/04 12:54:54;;;;;;;7.77;2.67;;;10.10;99.90;;;;;;5135022;27;20202;-81
2023/03/04 12:57:30;;;;;;;8.50;2.70;;;10.10;99.90;;;;;;5136213;27;20152;-80
2023/03/04 13:00:28;;;;;;;9.60;3.00;;;10.00;99.90;;;;;;5138590;27;20688;-79
2023/03/04 13:03:25;;;;;;;3.83;1.87;;;9.80;99.90;;;;;;5135270;27;20176;-80
2023/03/04 13:05:57;;;;;;;4.00;1.90;;;9.80;99.90;;;;;;5133719;27;20566;-80
2023/03/04 13:08:34;;;;;;;6.97;2.27;;;9.80;99.90;;;;;;5136260;27;20256;-79
2023/03/04 13:11:19;;;;;;;7.23;2.43;;;9.70;99.90;;;;;;5118737;27;20208;-79
2023/03/04 13:14:02;;;;;;;5.07;2.20;;;9.60;99.90;;;;;;5135132;27;20625;-78